sensor_id;sensor_type;location;lat;lon;timestamp;pressure;altitude;pressure_sealevel;temperature;humidity
75646;BME280;64237;52.438;13.240;2023-04-03T00:01:12;102608.63;;;1.61;69.88
75646;BME280;64237;52.438;13.240;2023-04-03T00:03:44;102597.44;;;1.64;69.49
75646;BME280;64237;52.438;13.240;2023-04-03T00:06:11;102596.25;;;1.57;69.53
75646;BME280;64237;52.438;13.240;2023-04-03T00:08:52;102597.97;;;1.58;69.60
75646;BME280;64237;52.438;13.240;2023-04-03T00:11:20;102599.84;;;1.57;70.30
75646;BME280;64237;52.438;13.240;2023-04-03T00:13:56;102602.91;;;1.64;68.32
75646;BME280;64237;52.438;13.240;2023-04-03T00:16:21;102601.72;;;1.57;69.44
75646;BME280;64237;52.438;13.240;2023-04-03T00:18:47;102608.31;;;1.54;68.90
75646;BME280;64237;52.438;13.240;2023-04-03T00:21:13;102605.63;;;1.64;69.47
75646;BME280;64237;52.438;13.240;2023-04-03T00:23:42;102595.97;;;1.50;68.82
75646;BME280;64237;52.438;13.240;2023-04-03T00:26:10;102598.53;;;1.52;69.57
75646;BME280;64237;52.438;13.240;2023-04-03T00:28:42;102609.16;;;1.45;68.41
75646;BME280;64237;52.438;13.240;2023-04-03T00:31:07;102602.28;;;1.51;67.46
75646;BME280;64237;52.438;13.240;2023-04-03T00:33:39;102611.47;;;1.50;67.43
75646;BME280;64237;52.438;13.240;2023-04-03T00:36:09;102608.00;;;1.48;68.02
75646;BME280;64237;52.438;13.240;2023-04-03T00:38:35;102611.41;;;1.40;68.30
75646;BME280;64237;52.438;13.240;2023-04-03T00:41:01;102612.00;;;1.44;67.95
75646;BME280;64237;52.438;13.240;2023-04-03T00:43:26;102608.84;;;1.38;71.21
75646;BME280;64237;52.438;13.240;2023-04-03T00:46:04;102612.47;;;1.49;68.88
75646;BME280;64237;52.438;13.240;2023-04-03T00:48:44;102613.75;;;1.45;67.74
75646;BME280;64237;52.438;13.240;2023-04-03T00:51:14;102608.84;;;1.38;69.94
75646;BME280;64237;52.438;13.240;2023-04-03T00:53:56;102612.41;;;1.39;69.49
75646;BME280;64237;52.438;13.240;2023-04-03T00:56:36;102616.81;;;1.30;69.63
75646;BME280;64237;52.438;13.240;2023-04-03T00:59:15;102623.00;;;1.32;69.04
75646;BME280;64237;52.438;13.240;2023-04-03T01:01:42;102615.81;;;1.31;68.78
75646;BME280;64237;52.438;13.240;2023-04-03T01:04:39;102619.38;;;1.22;69.05
75646;BME280;64237;52.438;13.240;2023-04-03T01:07:14;102617.00;;;1.29;68.84
75646;BME280;64237;52.438;13.240;2023-04-03T01:09:57;102617.41;;;1.34;68.98
75646;BME280;64237;52.438;13.240;2023-04-03T01:12:31;102624.59;;;1.35;68.78
75646;BME280;64237;52.438;13.240;2023-04-03T01:15:21;102620.56;;;1.29;68.56
75646;BME280;64237;52.438;13.240;2023-04-03T01:17:55;102622.28;;;1.30;68.79
75646;BME280;64237;52.438;13.240;2023-04-03T01:23:47;102620.25;;;1.23;68.34
75646;BME280;64237;52.438;13.240;2023-04-03T01:26:18;102617.69;;;1.31;70.32
75646;BME280;64237;52.438;13.240;2023-04-03T01:28:44;102612.78;;;1.25;69.33
75646;BME280;64237;52.438;13.240;2023-04-03T01:31:25;102624.16;;;1.09;69.87
75646;BME280;64237;52.438;13.240;2023-04-03T01:34:02;102621.28;;;1.01;68.78
75646;BME280;64237;52.438;13.240;2023-04-03T01:36:29;102622.28;;;1.00;70.85
75646;BME280;64237;52.438;13.240;2023-04-03T01:38:56;102625.25;;;0.97;69.11
75646;BME280;64237;52.438;13.240;2023-04-03T01:41:34;102624.72;;;1.03;69.06
75646;BME280;64237;52.438;13.240;2023-04-03T01:44:06;102636.91;;;0.99;69.88
75646;BME280;64237;52.438;13.240;2023-04-03T01:46:34;102626.78;;;0.90;70.78
75646;BME280;64237;52.438;13.240;2023-04-03T01:49:06;102633.66;;;0.84;70.95
75646;BME280;64237;52.438;13.240;2023-04-03T01:51:35;102625.47;;;0.84;71.27
75646;BME280;64237;52.438;13.240;2023-04-03T01:54:00;102630.06;;;0.84;70.51
75646;BME280;64237;52.438;13.240;2023-04-03T01:56:25;102630.06;;;0.84;72.33
75646;BME280;64237;52.438;13.240;2023-04-03T01:58:54;102644.25;;;0.66;71.49
75646;BME280;64237;52.438;13.240;2023-04-03T02:01:20;102636.81;;;0.68;71.48
75646;BME280;64237;52.438;13.240;2023-04-03T02:03:49;102648.53;;;0.59;72.67
75646;BME280;64237;52.438;13.240;2023-04-03T02:06:14;102643.97;;;0.49;72.48
75646;BME280;64237;52.438;13.240;2023-04-03T02:08:39;102643.84;;;0.50;72.79
75646;BME280;64237;52.438;13.240;2023-04-03T02:11:12;102646.88;;;0.36;73.24
75646;BME280;64237;52.438;13.240;2023-04-03T02:13:38;102644.66;;;0.41;73.12
75646;BME280;64237;52.438;13.240;2023-04-03T02:16:12;102647.16;;;0.33;73.73
75646;BME280;64237;52.438;13.240;2023-04-03T02:18:44;102639.09;;;0.31;73.70
75646;BME280;64237;52.438;13.240;2023-04-03T02:21:16;102644.56;;;0.31;73.97
75646;BME280;64237;52.438;13.240;2023-04-03T02:23:50;102647.41;;;0.30;74.09
75646;BME280;64237;52.438;13.240;2023-04-03T02:26:21;102644.97;;;0.16;74.02
75646;BME280;64237;52.438;13.240;2023-04-03T02:28:50;102644.50;;;0.11;74.91
75646;BME280;64237;52.438;13.240;2023-04-03T02:31:15;102642.78;;;0.10;74.41
75646;BME280;64237;52.438;13.240;2023-04-03T02:33:46;102644.25;;;0.14;74.57
75646;BME280;64237;52.438;13.240;2023-04-03T02:36:21;102649.69;;;0.14;74.77
75646;BME280;64237;52.438;13.240;2023-04-03T02:38:46;102651.44;;;0.04;74.17
75646;BME280;64237;52.438;13.240;2023-04-03T02:41:17;102658.22;;;0.20;74.53
75646;BME280;64237;52.438;13.240;2023-04-03T02:43:43;102674.38;;;0.22;74.74
75646;BME280;64237;52.438;13.240;2023-04-03T02:46:08;102673.44;;;0.12;74.99
75646;BME280;64237;52.438;13.240;2023-04-03T02:48:34;102672.94;;;0.07;74.76
75646;BME280;64237;52.438;13.240;2023-04-03T02:50:59;102677.63;;;0.16;75.39
75646;BME280;64237;52.438;13.240;2023-04-03T02:53:24;102676.59;;;0.28;74.52
75646;BME280;64237;52.438;13.240;2023-04-03T02:55:56;102683.56;;;0.10;74.73
75646;BME280;64237;52.438;13.240;2023-04-03T02:58:24;102677.38;;;0.19;75.63
75646;BME280;64237;52.438;13.240;2023-04-03T03:00:53;102684.81;;;0.17;74.94
75646;BME280;64237;52.438;13.240;2023-04-03T03:03:22;102682.09;;;0.17;74.98
75646;BME280;64237;52.438;13.240;2023-04-03T03:05:48;102685.31;;;0.11;74.86
75646;BME280;64237;52.438;13.240;2023-04-03T03:08:16;102675.47;;;-0.13;75.46
75646;BME280;64237;52.438;13.240;2023-04-03T03:10:47;102689.88;;;0.10;75.19
75646;BME280;64237;52.438;13.240;2023-04-03T03:13:21;102690.00;;;0.09;75.37
75646;BME280;64237;52.438;13.240;2023-04-03T03:15:59;102689.53;;;0.04;74.95
75646;BME280;64237;52.438;13.240;2023-04-03T03:18:43;102690.78;;;-0.01;75.41
75646;BME280;64237;52.438;13.240;2023-04-03T03:21:09;102698.16;;;0.20;75.96
75646;BME280;64237;52.438;13.240;2023-04-03T03:23:47;102695.94;;;0.03;75.78
75646;BME280;64237;52.438;13.240;2023-04-03T03:26:22;102685.31;;;0.11;75.68
75646;BME280;64237;52.438;13.240;2023-04-03T03:28:50;102693.22;;;0.03;75.19
75646;BME280;64237;52.438;13.240;2023-04-03T03:31:16;102692.97;;;0.06;76.25
75646;BME280;64237;52.438;13.240;2023-04-03T03:33:41;102697.31;;;0.08;76.07
75646;BME280;64237;52.438;13.240;2023-04-03T03:36:07;102698.41;;;0.06;76.48
75646;BME280;64237;52.438;13.240;2023-04-03T03:38:35;102685.81;;;0.05;75.15
75646;BME280;64237;52.438;13.240;2023-04-03T03:41:07;102702.63;;;0.10;75.86
75646;BME280;64237;52.438;13.240;2023-04-03T03:43:51;102694.97;;;0.04;75.29
75646;BME280;64237;52.438;13.240;2023-04-03T03:46:17;102696.19;;;0.11;75.93
75646;BME280;64237;52.438;13.240;2023-04-03T03:48:45;102697.69;;;0.15;75.82
75646;BME280;64237;52.438;13.240;2023-04-03T03:51:11;102700.03;;;0.19;75.86
75646;BME280;64237;52.438;13.240;2023-04-03T03:53:36;102692.72;;;0.09;75.47
75646;BME280;64237;52.438;13.240;2023-04-03T03:56:01;102695.69;;;0.06;75.24
75646;BME280;64237;52.438;13.240;2023-04-03T03:58:27;102696.19;;;0.11;76.17
75646;BME280;64237;52.438;13.240;2023-04-03T04:00:55;102693.97;;;0.16;75.21
75646;BME280;64237;52.438;13.240;2023-04-03T04:03:24;102696.44;;;0.08;74.63
75646;BME280;64237;52.438;13.240;2023-04-03T04:05:55;102693.22;;;0.03;75.36
75646;BME280;64237;52.438;13.240;2023-04-03T04:08:29;102695.13;;;-0.09;75.87
75646;BME280;64237;52.438;13.240;2023-04-03T04:10:55;102690.91;;;-0.02;76.61
75646;BME280;64237;52.438;13.240;2023-04-03T04:13:26;102698.66;;;0.03;75.42
75646;BME280;64237;52.438;13.240;2023-04-03T04:15:51;102698.94;;;-0.01;75.85
75646;BME280;64237;52.438;13.240;2023-04-03T04:18:20;102701.41;;;-0.20;76.16
75646;BME280;64237;52.438;13.240;2023-04-03T04:20:52;102699.31;;;-0.39;76.48
75646;BME280;64237;52.438;13.240;2023-04-03T04:23:18;102697.34;;;-0.14;76.33
75646;BME280;64237;52.438;13.240;2023-04-03T04:25:50;102697.97;;;-0.11;76.33
75646;BME280;64237;52.438;13.240;2023-04-03T04:28:18;102697.47;;;-0.05;76.14
75646;BME280;64237;52.438;13.240;2023-04-03T04:30:46;102700.06;;;-0.03;75.99
75646;BME280;64237;52.438;13.240;2023-04-03T04:33:15;102702.16;;;-0.07;76.51
75646;BME280;64237;52.438;13.240;2023-04-03T04:35:42;102703.53;;;-0.12;76.19
75646;BME280;64237;52.438;13.240;2023-04-03T04:38:08;102710.41;;;0.03;76.98
75646;BME280;64237;52.438;13.240;2023-04-03T04:40:34;102708.84;;;-0.11;76.47
75646;BME280;64237;52.438;13.240;2023-04-03T04:42:59;102705.78;;;-0.28;76.83
75646;BME280;64237;52.438;13.240;2023-04-03T04:45:24;102710.44;;;-0.19;77.70
75646;BME280;64237;52.438;13.240;2023-04-03T04:47:50;102719.97;;;-0.36;76.83
75646;BME280;64237;52.438;13.240;2023-04-03T04:50:20;102715.16;;;-0.32;77.23
75646;BME280;64237;52.438;13.240;2023-04-03T04:52:48;102727.38;;;-0.16;76.98
75646;BME280;64237;52.438;13.240;2023-04-03T04:55:13;102719.47;;;-0.19;76.82
75646;BME280;64237;52.438;13.240;2023-04-03T04:57:39;102728.03;;;-0.23;76.62
75646;BME280;64237;52.438;13.240;2023-04-03T05:00:05;102723.44;;;-0.34;77.30
75646;BME280;64237;52.438;13.240;2023-04-03T05:02:31;102725.44;;;-0.25;77.03
75646;BME280;64237;52.438;13.240;2023-04-03T05:04:56;102725.53;;;-0.26;77.51
75646;BME280;64237;52.438;13.240;2023-04-03T05:07:27;102727.38;;;-0.16;77.24
75646;BME280;64237;52.438;13.240;2023-04-03T05:09:53;102725.41;;;-0.14;77.95
75646;BME280;64237;52.438;13.240;2023-04-03T05:12:18;102729.59;;;-0.21;77.50
75646;BME280;64237;52.438;13.240;2023-04-03T05:14:43;102732.56;;;-0.13;76.85
75646;BME280;64237;52.438;13.240;2023-04-03T05:17:09;102730.84;;;-0.14;77.43
75646;BME280;64237;52.438;13.240;2023-04-03T05:19:34;102735.66;;;-0.06;76.77
75646;BME280;64237;52.438;13.240;2023-04-03T05:22:09;102730.09;;;-0.05;77.32
75646;BME280;64237;52.438;13.240;2023-04-03T05:24:50;102738.00;;;0.10;77.53
75646;BME280;64237;52.438;13.240;2023-04-03T05:27:18;102729.28;;;0.27;76.53
75646;BME280;64237;52.438;13.240;2023-04-03T05:29:46;102738.69;;;0.23;76.53
75646;BME280;64237;52.438;13.240;2023-04-03T05:32:12;102737.56;;;0.37;76.21
75646;BME280;64237;52.438;13.240;2023-04-03T05:34:37;102738.94;;;0.42;76.15
75646;BME280;64237;52.438;13.240;2023-04-03T05:37:05;102735.72;;;0.37;75.50
75646;BME280;64237;52.438;13.240;2023-04-03T05:39:31;102746.94;;;0.44;76.59
75646;BME280;64237;52.438;13.240;2023-04-03T05:41:57;102739.88;;;0.52;75.78
75646;BME280;64237;52.438;13.240;2023-04-03T05:44:22;102747.91;;;0.54;74.75
75646;BME280;64237;52.438;13.240;2023-04-03T05:46:56;102754.72;;;0.59;75.32
75646;BME280;64237;52.438;13.240;2023-04-03T05:49:21;102753.19;;;0.66;75.01
75646;BME280;64237;52.438;13.240;2023-04-03T05:51:54;102757.63;;;0.67;74.66
75646;BME280;64237;52.438;13.240;2023-04-03T05:54:29;102761.94;;;0.81;74.79
75646;BME280;64237;52.438;13.240;2023-04-03T05:56:58;102760.53;;;0.87;74.86
75646;BME280;64237;52.438;13.240;2023-04-03T05:59:23;102759.41;;;0.89;74.29
75646;BME280;64237;52.438;13.240;2023-04-03T06:01:51;102762.63;;;0.94;74.63
75646;BME280;64237;52.438;13.240;2023-04-03T06:04:17;102763.88;;;1.11;73.50
75646;BME280;64237;52.438;13.240;2023-04-03T06:06:55;102766.34;;;1.14;74.08
75646;BME280;64237;52.438;13.240;2023-04-03T06:09:24;102765.63;;;1.33;72.47
75646;BME280;64237;52.438;13.240;2023-04-03T06:11:53;102769.56;;;1.40;72.81
75646;BME280;64237;52.438;13.240;2023-04-03T06:14:18;102763.25;;;1.40;72.25
75646;BME280;64237;52.438;13.240;2023-04-03T06:16:44;102761.25;;;1.42;71.08
75646;BME280;64237;52.438;13.240;2023-04-03T06:19:11;102757.53;;;1.43;71.21
75646;BME280;64237;52.438;13.240;2023-04-03T06:21:49;102767.47;;;1.53;71.54
75646;BME280;64237;52.438;13.240;2023-04-03T06:24:16;102776.25;;;1.57;70.68
75646;BME280;64237;52.438;13.240;2023-04-03T06:26:48;102765.94;;;1.60;70.92
75646;BME280;64237;52.438;13.240;2023-04-03T06:29:14;102775.72;;;1.63;69.28
75646;BME280;64237;52.438;13.240;2023-04-03T06:31:43;102771.47;;;1.70;68.93
75646;BME280;64237;52.438;13.240;2023-04-03T06:34:12;102775.84;;;1.82;68.38
75646;BME280;64237;52.438;13.240;2023-04-03T06:36:38;102778.09;;;1.77;68.35
75646;BME280;64237;52.438;13.240;2023-04-03T06:39:04;102781.03;;;1.85;68.02
75646;BME280;64237;52.438;13.240;2023-04-03T06:41:44;102788.84;;;1.99;68.37
75646;BME280;64237;52.438;13.240;2023-04-03T06:44:13;102776.97;;;2.10;66.58
75646;BME280;64237;52.438;13.240;2023-04-03T06:46:40;102794.66;;;2.16;66.15
75646;BME280;64237;52.438;13.240;2023-04-03T06:49:06;102788.38;;;2.25;65.10
75646;BME280;64237;52.438;13.240;2023-04-03T06:51:33;102798.19;;;2.37;65.93
75646;BME280;64237;52.438;13.240;2023-04-03T06:54:02;102800.06;;;2.36;63.73
75646;BME280;64237;52.438;13.240;2023-04-03T06:56:31;102794.75;;;2.45;62.01
75646;BME280;64237;52.438;13.240;2023-04-03T06:58:59;102795.06;;;2.51;63.27
75646;BME280;64237;52.438;13.240;2023-04-03T07:01:30;102804.97;;;2.52;61.75
75646;BME280;64237;52.438;13.240;2023-04-03T07:04:14;102795.50;;;2.66;63.38
75646;BME280;64237;52.438;13.240;2023-04-03T07:06:40;102809.47;;;2.72;60.22
75646;BME280;64237;52.438;13.240;2023-04-03T07:09:07;102803.03;;;2.73;62.03
75646;BME280;64237;52.438;13.240;2023-04-03T07:11:35;102811.81;;;2.87;62.59
75646;BME280;64237;52.438;13.240;2023-04-03T07:14:10;102807.78;;;3.10;61.91
75646;BME280;64237;52.438;13.240;2023-04-03T07:16:36;102811.84;;;3.16;60.50
75646;BME280;64237;52.438;13.240;2023-04-03T07:19:16;102807.94;;;3.37;61.07
75646;BME280;64237;52.438;13.240;2023-04-03T07:21:43;102818.88;;;3.37;58.52
75646;BME280;64237;52.438;13.240;2023-04-03T07:24:12;102821.75;;;3.26;56.61
75646;BME280;64237;52.438;13.240;2023-04-03T07:26:38;102815.84;;;3.40;59.29
75646;BME280;64237;52.438;13.240;2023-04-03T07:29:13;102826.34;;;3.35;57.66
75646;BME280;64237;52.438;13.240;2023-04-03T07:31:39;102817.00;;;3.38;56.79
75646;BME280;64237;52.438;13.240;2023-04-03T07:34:06;102810.38;;;3.40;57.03
75646;BME280;64237;52.438;13.240;2023-04-03T07:36:31;102824.06;;;3.40;56.87
75646;BME280;64237;52.438;13.240;2023-04-03T07:38:58;102823.34;;;3.38;57.51
75646;BME280;64237;52.438;13.240;2023-04-03T07:41:27;102821.31;;;3.40;57.39
75646;BME280;64237;52.438;13.240;2023-04-03T07:43:56;102824.50;;;3.46;57.92
75646;BME280;64237;52.438;13.240;2023-04-03T07:46:22;102824.31;;;3.47;53.91
75646;BME280;64237;52.438;13.240;2023-04-03T07:48:53;102829.97;;;3.46;54.20
75646;BME280;64237;52.438;13.240;2023-04-03T07:51:18;102837.47;;;3.24;53.68
75646;BME280;64237;52.438;13.240;2023-04-03T07:53:47;102837.16;;;3.27;51.81
75646;BME280;64237;52.438;13.240;2023-04-03T07:56:13;102840.31;;;3.61;52.23
75646;BME280;64237;52.438;13.240;2023-04-03T07:58:45;102831.91;;;3.82;53.79
75646;BME280;64237;52.438;13.240;2023-04-03T08:01:13;102827.97;;;3.94;51.05
75646;BME280;64237;52.438;13.240;2023-04-03T08:03:45;102832.16;;;3.98;52.64
75646;BME280;64237;52.438;13.240;2023-04-03T08:06:10;102846.47;;;3.83;52.35
75646;BME280;64237;52.438;13.240;2023-04-03T08:08:36;102827.78;;;3.59;49.68
75646;BME280;64237;52.438;13.240;2023-04-03T08:11:02;102825.09;;;4.05;53.09
75646;BME280;64237;52.438;13.240;2023-04-03T08:13:28;102851.47;;;4.43;50.93
75646;BME280;64237;52.438;13.240;2023-04-03T08:15:54;102828.78;;;4.14;51.44
75646;BME280;64237;52.438;13.240;2023-04-03T08:18:23;102826.59;;;4.27;51.25
75646;BME280;64237;52.438;13.240;2023-04-03T08:20:51;102814.69;;;4.36;50.79
75646;BME280;64237;52.438;13.240;2023-04-03T08:23:17;102829.69;;;4.42;52.11
75646;BME280;64237;52.438;13.240;2023-04-03T08:25:43;102825.94;;;4.43;50.96
75646;BME280;64237;52.438;13.240;2023-04-03T08:28:11;102834.38;;;4.22;52.07
75646;BME280;64237;52.438;13.240;2023-04-03T08:30:39;102839.94;;;3.93;49.97
75646;BME280;64237;52.438;13.240;2023-04-03T08:33:05;102833.94;;;3.80;51.10
75646;BME280;64237;52.438;13.240;2023-04-03T08:35:31;102833.06;;;3.70;51.03
75646;BME280;64237;52.438;13.240;2023-04-03T08:37:56;102816.66;;;3.70;50.65
75646;BME280;64237;52.438;13.240;2023-04-03T08:40:22;102819.19;;;4.00;54.44
75646;BME280;64237;52.438;13.240;2023-04-03T08:45:45;102820.97;;;4.19;49.41
75646;BME280;64237;52.438;13.240;2023-04-03T08:48:27;102816.06;;;4.23;49.13
75646;BME280;64237;52.438;13.240;2023-04-03T08:50:59;102819.84;;;4.49;51.02
75646;BME280;64237;52.438;13.240;2023-04-03T08:53:28;102815.78;;;4.53;52.07
75646;BME280;64237;52.438;13.240;2023-04-03T08:55:58;102822.25;;;4.79;50.32
75646;BME280;64237;52.438;13.240;2023-04-03T08:58:29;102817.88;;;5.22;50.54
75646;BME280;64237;52.438;13.240;2023-04-03T09:00:59;102820.53;;;5.49;48.00
75646;BME280;64237;52.438;13.240;2023-04-03T09:03:29;102817.03;;;5.83;46.84
75646;BME280;64237;52.438;13.240;2023-04-03T09:06:29;102814.22;;;5.75;45.93
75646;BME280;64237;52.438;13.240;2023-04-03T09:14:39;102807.41;;;5.79;45.39
75646;BME280;64237;52.438;13.240;2023-04-03T09:19:52;102820.41;;;6.21;46.45
75646;BME280;64237;52.438;13.240;2023-04-03T09:22:28;102821.81;;;6.25;44.27
75646;BME280;64237;52.438;13.240;2023-04-03T09:27:27;102815.28;;;6.00;45.31
75646;BME280;64237;52.438;13.240;2023-04-03T09:29:55;102821.31;;;6.79;45.44
75646;BME280;64237;52.438;13.240;2023-04-03T09:32:32;102818.00;;;7.26;43.06
75646;BME280;64237;52.438;13.240;2023-04-03T09:35:13;102809.06;;;7.56;43.75
75646;BME280;64237;52.438;13.240;2023-04-03T09:37:45;102811.81;;;7.48;41.13
75646;BME280;64237;52.438;13.240;2023-04-03T09:43:00;102818.00;;;7.42;42.36
75646;BME280;64237;52.438;13.240;2023-04-03T09:45:30;102812.81;;;7.23;39.89
75646;BME280;64237;52.438;13.240;2023-04-03T09:48:18;102814.91;;;7.53;41.77
75646;BME280;64237;52.438;13.240;2023-04-03T09:55:54;102818.31;;;7.07;41.94
75646;BME280;64237;52.438;13.240;2023-04-03T09:58:25;102818.50;;;6.55;42.82
75646;BME280;64237;52.438;13.240;2023-04-03T10:00:57;102797.50;;;6.46;43.16
75646;BME280;64237;52.438;13.240;2023-04-03T10:05:54;102805.97;;;5.93;41.35
75646;BME280;64237;52.438;13.240;2023-04-03T10:08:27;102802.72;;;6.65;42.30
75646;BME280;64237;52.438;13.240;2023-04-03T10:11:12;102802.13;;;7.04;42.49
75646;BME280;64237;52.438;13.240;2023-04-03T10:13:52;102794.25;;;7.25;40.22
75646;BME280;64237;52.438;13.240;2023-04-03T10:16:22;102778.75;;;7.65;39.60
75646;BME280;64237;52.438;13.240;2023-04-03T10:24:13;102792.81;;;6.88;43.04
75646;BME280;64237;52.438;13.240;2023-04-03T10:35:08;102788.97;;;6.73;41.14
75646;BME280;64237;52.438;13.240;2023-04-03T10:37:57;102775.31;;;7.06;42.13
75646;BME280;64237;52.438;13.240;2023-04-03T10:41:07;102776.00;;;7.24;41.99
75646;BME280;64237;52.438;13.240;2023-04-03T10:46:24;102770.47;;;7.16;41.85
75646;BME280;64237;52.438;13.240;2023-04-03T10:51:43;102767.84;;;6.66;39.99
75646;BME280;64237;52.438;13.240;2023-04-03T10:54:29;102757.69;;;6.66;42.54
75646;BME280;64237;52.438;13.240;2023-04-03T10:57:08;102761.16;;;6.76;41.25
75646;BME280;64237;52.438;13.240;2023-04-03T10:59:47;102755.66;;;6.84;41.44
75646;BME280;64237;52.438;13.240;2023-04-03T11:02:35;102744.19;;;7.05;41.03
75646;BME280;64237;52.438;13.240;2023-04-03T11:07:44;102746.88;;;6.73;39.85
75646;BME280;64237;52.438;13.240;2023-04-03T11:10:17;102737.22;;;7.82;39.53
75646;BME280;64237;52.438;13.240;2023-04-03T11:13:10;102745.00;;;7.63;38.87
75646;BME280;64237;52.438;13.240;2023-04-03T11:15:36;102740.91;;;7.18;37.57
75646;BME280;64237;52.438;13.240;2023-04-03T11:18:06;102729.56;;;7.13;40.65
75646;BME280;64237;52.438;13.240;2023-04-03T11:20:35;102736.78;;;7.22;40.77
75646;BME280;64237;52.438;13.240;2023-04-03T11:23:26;102734.03;;;7.22;39.78
75646;BME280;64237;52.438;13.240;2023-04-03T11:26:08;102735.81;;;7.95;41.07
75646;BME280;64237;52.438;13.240;2023-04-03T11:28:36;102734.63;;;7.81;39.48
75646;BME280;64237;52.438;13.240;2023-04-03T11:31:13;102731.59;;;7.43;38.11
75646;BME280;64237;52.438;13.240;2023-04-03T11:33:51;102727.00;;;7.11;41.31
75646;BME280;64237;52.438;13.240;2023-04-03T11:36:30;102715.44;;;7.40;42.72
75646;BME280;64237;52.438;13.240;2023-04-03T11:39:02;102720.25;;;7.46;41.56
75646;BME280;64237;52.438;13.240;2023-04-03T11:41:33;102725.75;;;7.46;40.74
75646;BME280;64237;52.438;13.240;2023-04-03T11:44:06;102724.19;;;7.44;41.23
75646;BME280;64237;52.438;13.240;2023-04-03T11:47:08;102725.94;;;7.29;41.18
75646;BME280;64237;52.438;13.240;2023-04-03T11:50:00;102738.13;;;6.69;39.90
75646;BME280;64237;52.438;13.240;2023-04-03T12:05:49;102729.84;;;6.77;44.92
75646;BME280;64237;52.438;13.240;2023-04-03T12:18:55;102725.78;;;6.31;42.50
75646;BME280;64237;52.438;13.240;2023-04-03T12:26:24;102721.47;;;6.87;45.58
75646;BME280;64237;52.438;13.240;2023-04-03T12:28:53;102726.06;;;6.62;43.67
75646;BME280;64237;52.438;13.240;2023-04-03T12:31:19;102714.91;;;6.80;47.26
75646;BME280;64237;52.438;13.240;2023-04-03T12:34:30;102721.63;;;6.85;45.39
75646;BME280;64237;52.438;13.240;2023-04-03T12:40:04;102722.13;;;6.14;46.30
75646;BME280;64237;52.438;13.240;2023-04-03T12:45:21;102720.88;;;6.59;46.76
75646;BME280;64237;52.438;13.240;2023-04-03T12:47:49;102720.22;;;6.65;44.18
75646;BME280;64237;52.438;13.240;2023-04-03T12:50:23;102718.16;;;6.67;43.91
75646;BME280;64237;52.438;13.240;2023-04-03T12:52:59;102721.94;;;6.66;43.82
75646;BME280;64237;52.438;13.240;2023-04-03T12:55:26;102715.72;;;6.56;42.88
75646;BME280;64237;52.438;13.240;2023-04-03T12:57:52;102718.50;;;6.64;43.82
75646;BME280;64237;52.438;13.240;2023-04-03T13:00:33;102714.78;;;6.23;44.12
75646;BME280;64237;52.438;13.240;2023-04-03T13:03:03;102705.63;;;6.14;43.99
75646;BME280;64237;52.438;13.240;2023-04-03T13:05:31;102705.41;;;6.00;42.78
75646;BME280;64237;52.438;13.240;2023-04-03T13:08:10;102711.13;;;6.14;41.97
75646;BME280;64237;52.438;13.240;2023-04-03T13:10:52;102708.34;;;6.06;43.33
75646;BME280;64237;52.438;13.240;2023-04-03T13:13:18;102708.34;;;6.06;40.85
75646;BME280;64237;52.438;13.240;2023-04-03T13:15:46;102703.97;;;6.30;40.66
75646;BME280;64237;52.438;13.240;2023-04-03T13:18:34;102704.75;;;6.64;41.24
75646;BME280;64237;52.438;13.240;2023-04-03T13:21:06;102697.53;;;6.96;43.35
75646;BME280;64237;52.438;13.240;2023-04-03T13:23:35;102700.47;;;6.86;44.50
75646;BME280;64237;52.438;13.240;2023-04-03T13:26:03;102702.53;;;6.84;41.59
75646;BME280;64237;52.438;13.240;2023-04-03T13:28:31;102702.13;;;6.54;41.85
75646;BME280;64237;52.438;13.240;2023-04-03T13:34:02;102698.75;;;6.10;46.80
75646;BME280;64237;52.438;13.240;2023-04-03T13:36:32;102702.50;;;6.09;45.91
75646;BME280;64237;52.438;13.240;2023-04-03T13:41:35;102694.63;;;6.14;44.35
75646;BME280;64237;52.438;13.240;2023-04-03T13:46:49;102691.78;;;5.90;45.51
75646;BME280;64237;52.438;13.240;2023-04-03T13:51:53;102689.13;;;5.46;46.12
75646;BME280;64237;52.438;13.240;2023-04-03T13:54:24;102690.06;;;5.63;45.83
75646;BME280;64237;52.438;13.240;2023-04-03T13:56:56;102684.47;;;5.73;45.98
75646;BME280;64237;52.438;13.240;2023-04-03T13:59:33;102687.66;;;5.60;45.24
75646;BME280;64237;52.438;13.240;2023-04-03T14:07:16;102679.44;;;5.94;45.88
75646;BME280;64237;52.438;13.240;2023-04-03T14:09:43;102682.53;;;5.91;44.36
75646;BME280;64237;52.438;13.240;2023-04-03T14:12:16;102679.34;;;5.78;45.05
75646;BME280;64237;52.438;13.240;2023-04-03T14:14:43;102681.72;;;5.73;45.41
75646;BME280;64237;52.438;13.240;2023-04-03T14:17:19;102674.28;;;5.91;45.91
75646;BME280;64237;52.438;13.240;2023-04-03T14:19:47;102680.47;;;5.93;46.00
75646;BME280;64237;52.438;13.240;2023-04-03T14:22:23;102682.91;;;5.70;45.41
75646;BME280;64237;52.438;13.240;2023-04-03T14:24:50;102679.13;;;5.71;46.89
75646;BME280;64237;52.438;13.240;2023-04-03T14:29:41;102685.53;;;5.80;46.96
75646;BME280;64237;52.438;13.240;2023-04-03T14:32:07;102680.06;;;5.80;48.66
75646;BME280;64237;52.438;13.240;2023-04-03T14:34:32;102680.47;;;5.93;47.11
75646;BME280;64237;52.438;13.240;2023-04-03T14:36:57;102680.84;;;5.98;46.20
75646;BME280;64237;52.438;13.240;2023-04-03T14:39:23;102680.66;;;5.66;45.55
75646;BME280;64237;52.438;13.240;2023-04-03T14:41:48;102680.47;;;5.67;46.31
75646;BME280;64237;52.438;13.240;2023-04-03T14:44:14;102680.41;;;5.85;46.96
75646;BME280;64237;52.438;13.240;2023-04-03T14:46:43;102684.41;;;5.91;47.10
75646;BME280;64237;52.438;13.240;2023-04-03T14:49:18;102675.59;;;5.87;45.93